地図

経路データ

SID SEASON NUMBER BASIN SUBBASIN NAME ISO_TIME NATURE LAT LON WMO_WIND WMO_PRES WMO_AGENCY TRACK_TYPE DIST2LAND LANDFALL IFLAG USA_AGENCY USA_ATCF_ID USA_LAT USA_LON USA_RECORD USA_STATUS USA_WIND USA_PRES USA_SSHS USA_R34_NE USA_R34_SE USA_R34_SW USA_R34_NW USA_R50_NE USA_R50_SE USA_R50_SW USA_R50_NW USA_R64_NE USA_R64_SE USA_R64_SW USA_R64_NW USA_POCI USA_ROCI USA_RMW USA_EYE TOKYO_LAT TOKYO_LON TOKYO_GRADE TOKYO_WIND TOKYO_PRES TOKYO_R50_DIR TOKYO_R50_LONG TOKYO_R50_SHORT TOKYO_R30_DIR TOKYO_R30_LONG TOKYO_R30_SHORT TOKYO_LAND CMA_LAT CMA_LON CMA_CAT CMA_WIND CMA_PRES HKO_LAT HKO_LON HKO_CAT HKO_WIND HKO_PRES NEWDELHI_LAT NEWDELHI_LON NEWDELHI_GRADE NEWDELHI_WIND NEWDELHI_PRES NEWDELHI_CI NEWDELHI_DP NEWDELHI_POCI REUNION_LAT REUNION_LON REUNION_TYPE REUNION_WIND REUNION_PRES REUNION_TNUM REUNION_CI REUNION_RMW REUNION_R34_NE REUNION_R34_SE REUNION_R34_SW REUNION_R34_NW REUNION_R50_NE REUNION_R50_SE REUNION_R50_SW REUNION_R50_NW REUNION_R64_NE REUNION_R64_SE REUNION_R64_SW REUNION_R64_NW BOM_LAT BOM_LON BOM_TYPE BOM_WIND BOM_PRES BOM_TNUM BOM_CI BOM_RMW BOM_R34_NE BOM_R34_SE BOM_R34_SW BOM_R34_NW BOM_R50_NE BOM_R50_SE BOM_R50_SW BOM_R50_NW BOM_R64_NE BOM_R64_SE BOM_R64_SW BOM_R64_NW BOM_ROCI BOM_POCI BOM_EYE BOM_POS_METHOD BOM_PRES_METHOD NADI_LAT NADI_LON NADI_CAT NADI_WIND NADI_PRES WELLINGTON_LAT WELLINGTON_LON WELLINGTON_WIND WELLINGTON_PRES DS824_LAT DS824_LON DS824_STAGE DS824_WIND DS824_PRES TD9636_LAT TD9636_LON TD9636_STAGE TD9636_WIND TD9636_PRES TD9635_LAT TD9635_LON TD9635_WIND TD9635_PRES TD9635_ROCI NEUMANN_LAT NEUMANN_LON NEUMANN_CLASS NEUMANN_WIND NEUMANN_PRES MLC_LAT MLC_LON MLC_CLASS MLC_WIND MLC_PRES USA_GUST BOM_GUST BOM_GUST_PER REUNION_GUST REUNION_GUST_PER USA_SEAHGT USA_SEARAD_NE USA_SEARAD_SE USA_SEARAD_SW USA_SEARAD_NW STORM_SPEED STORM_DIR
1974235N11243 1974 86 EP MM LORRAINE 1974-08-23 00:00:00 TS 11.2000 -117.000 25 hurdat_epa main 1505 1505 O________OO___ hurdat_epa EP121974 11.2000 -117.000 TD 25 -1 11.2000 -117.000 TC 25 11.2000 -117.000 1 30 6 279
1974235N11243 1974 86 EP MM LORRAINE 1974-08-23 03:00:00 TS 11.2460 -117.304 main 1521 1511 P________PP___ EP121974 11.2425 -117.295 TD 30 -1 11.2425 -117.295 TC 30 11.2599 -117.342 1 31 6 280
1974235N11243 1974 86 EP MM LORRAINE 1974-08-23 06:00:00 TS 11.3051 -117.613 35 hurdat_epa main 1527 1527 O________OP___ hurdat_epa EP121974 11.3000 -117.600 TS 35 0 11.3000 -117.600 TC 35 11.3256 -117.667 1 32 6 283
1974235N11243 1974 86 EP MM LORRAINE 1974-08-23 09:00:00 TS 11.3887 -117.924 main 1535 1535 P________PP___ EP121974 11.3850 -117.915 TS 35 0 11.3850 -117.915 TC 35 11.4036 -117.959 1 33 6 289
1974235N11243 1974 86 EP MM LORRAINE 1974-08-23 12:00:00 TS 11.5000 -118.200 35 hurdat_epa main 1543 1540 O________OO___ hurdat_epa EP121974 11.5000 -118.200 TS 35 0 11.5000 -118.200 TC 35 11.5000 -118.200 2 35 5 298
1974235N11243 1974 86 EP MM LORRAINE 1974-08-23 15:00:00 TS 11.6436 -118.409 main 1546 1534 P________PP___ EP121974 11.6500 -118.415 TS 35 0 11.6500 -118.415 TC 35 11.6183 -118.384 2 36 5 307
1974235N11243 1974 86 EP MM LORRAINE 1974-08-23 18:00:00 TS 11.7899 -118.590 35 hurdat_epa main 1540 1537 O________OP___ hurdat_epa EP121974 11.8000 -118.600 TS 35 0 11.8000 -118.600 TC 35 11.7493 -118.548 2 37 4 308
1974235N11243 1974 86 EP MM LORRAINE 1974-08-23 21:00:00 TS 11.9020 -118.752 main 1543 1541 P________PP___ EP121974 11.9073 -118.755 TS 35 0 11.9073 -118.755 TC 35 11.8807 -118.737 2 38 5 298
1974235N11243 1974 86 EP MM LORRAINE 1974-08-24 00:00:00 TS 12.0000 -119.000 35 hurdat_epa main 1547 1547 O________OO___ hurdat_epa EP121974 12.0000 -119.000 TS 35 0 12.0000 -119.000 TC 35 12.0000 -119.000 2 40 7 286
1974235N11243 1974 86 EP MM LORRAINE 1974-08-24 03:00:00 TS 12.1050 -119.478 main 1572 1572 P________PP___ EP121974 12.1076 -119.462 TS 37 0 12.1076 -119.462 TC 37 12.0945 -119.538 2 40 10 281
1974235N11243 1974 86 EP MM LORRAINE 1974-08-24 06:00:00 TS 12.1948 -120.026 40 hurdat_epa main 1597 1597 O________OP___ hurdat_epa EP121974 12.2000 -120.000 TS 40 0 12.2000 -120.000 TC 40 12.1738 -120.130 2 40 11 278
1974235N11243 1974 86 EP MM LORRAINE 1974-08-24 09:00:00 TS 12.2543 -120.588 main 1632 1632 P________PP___ EP121974 12.2576 -120.577 TS 40 0 12.2576 -120.577 TC 40 12.2410 -120.632 2 40 9 277
1974235N11243 1974 86 EP MM LORRAINE 1974-08-24 12:00:00 TS 12.3000 -120.900 40 hurdat_epa main 1654 1639 O________OO___ hurdat_epa EP121974 12.3000 -120.900 TS 40 0 12.3000 -120.900 TC 40 12.3000 -120.900 2 40 1 314
1974235N11243 1974 86 EP MM LORRAINE 1974-08-24 15:00:00 TS 12.3490 -120.689 main 1639 1595 P________PP___ EP121974 12.3500 -120.685 TS 40 0 12.3500 -120.685 TC 40 12.3453 -120.707 2 40 7 82
1974235N11243 1974 86 EP MM LORRAINE 1974-08-24 18:00:00 TS 12.3972 -120.216 40 hurdat_epa main 1595 1559 O________OP___ hurdat_epa EP121974 12.4000 -120.200 TS 40 0 12.4000 -120.200 TC 40 12.3859 -120.280 2 40 9 84
1974235N11243 1974 86 EP MM LORRAINE 1974-08-24 21:00:00 TS 12.4408 -119.723 main 1559 1523 P________PP___ EP121974 12.4427 -119.713 TS 40 0 12.4427 -119.713 TC 40 12.4333 -119.763 2 40 9 83
1974235N11243 1974 86 EP MM LORRAINE 1974-08-25 00:00:00 TS 12.5000 -119.300 40 hurdat_epa main 1523 1508 O________OO___ hurdat_epa EP121974 12.5000 -119.300 TS 40 0 12.5000 -119.300 TC 40 12.5000 -119.300 2 40 6 76
1974235N11243 1974 86 EP MM LORRAINE 1974-08-25 03:00:00 TS 12.5820 -119.150 main 1501 1492 P________PP___ EP121974 12.5849 -119.155 TS 40 0 12.5849 -119.155 TC 40 12.5704 -119.128 2 38 3 47
1974235N11243 1974 86 EP MM LORRAINE 1974-08-25 06:00:00 TS 12.6934 -119.085 40 hurdat_epa main 1492 1476 O________OP___ hurdat_epa EP121974 12.7000 -119.100 TS 40 0 12.7000 -119.100 TC 40 12.6668 -119.027 2 37 3 36
1974235N11243 1974 86 EP MM LORRAINE 1974-08-25 09:00:00 TS 12.8169 -118.971 main 1476 1445 P________PP___ EP121974 12.8200 -118.980 TS 40 0 12.8200 -118.980 TC 40 12.8048 -118.937 2 36 4 42
1974235N11243 1974 86 EP MM LORRAINE 1974-08-25 12:00:00 TS 13.0000 -118.800 40 hurdat_epa main 1445 1399 O________OO___ hurdat_epa EP121974 13.0000 -118.800 TS 40 0 13.0000 -118.800 TC 40 13.0000 -118.800 2 35 6 44
1974235N11243 1974 86 EP MM LORRAINE 1974-08-25 15:00:00 TS 13.2672 -118.522 main 1399 1352 P________PP___ EP121974 13.2700 -118.530 TS 42 0 13.2700 -118.530 TC 42 13.2558 -118.493 2 37 8 45
1974235N11243 1974 86 EP MM LORRAINE 1974-08-25 18:00:00 TS 13.5936 -118.187 45 hurdat_epa main 1352 1299 O________OP___ hurdat_epa EP121974 13.6000 -118.200 TS 45 0 13.6000 -118.200 TC 45 13.5682 -118.136 2 40 10 46
1974235N11243 1974 86 EP MM LORRAINE 1974-08-25 21:00:00 TS 13.9323 -117.825 main 1299 1244 P________PP___ EP121974 13.9351 -117.835 TS 45 0 13.9351 -117.835 TC 45 13.9214 -117.786 2 42 10 43
1974235N11243 1974 86 EP MM LORRAINE 1974-08-26 00:00:00 TS 14.3000 -117.500 45 hurdat_epa main 1244 1196 O________OO___ hurdat_epa EP121974 14.3000 -117.500 TS 45 0 14.3000 -117.500 TC 45 14.3000 -117.500 2 45 9 36
1974235N11243 1974 86 EP MM LORRAINE 1974-08-26 03:00:00 TS 14.6953 -117.251 main 1196 1147 P________PP___ EP121974 14.6925 -117.240 TS 42 0 14.6925 -117.240 TC 42 14.7065 -117.292 2 43 9 25
1974235N11243 1974 86 EP MM LORRAINE 1974-08-26 06:00:00 TS 15.1059 -117.113 40 hurdat_epa main 1147 1113 O________OP___ hurdat_epa EP121974 15.1000 -117.100 TS 40 0 15.1000 -117.100 TC 40 15.1294 -117.163 2 42 8 11
1974235N11243 1974 86 EP MM LORRAINE 1974-08-26 09:00:00 TS 15.5195 -117.085 main 1113 1087 P________PP___ EP121974 15.5149 -117.075 TS 40 0 15.5149 -117.075 TC 40 15.5377 -117.127 2 41 8 354
1974235N11243 1974 86 EP MM LORRAINE 1974-08-26 12:00:00 TS 15.9000 -117.200 40 hurdat_epa main 1087 1077 O________OO___ hurdat_epa EP121974 15.9000 -117.200 TS 40 0 15.9000 -117.200 TC 40 15.9000 -117.200 2 40 8 334
1974235N11243 1974 86 EP MM LORRAINE 1974-08-26 15:00:00 TS 16.2268 -117.449 main 1077 1077 P________PP___ EP121974 16.2376 -117.462 TS 37 0 16.2376 -117.462 TC 37 16.1837 -117.396 2 38 8 316
1974235N11243 1974 86 EP MM LORRAINE 1974-08-26 18:00:00 TS 16.4836 -117.779 35 hurdat_epa main 1085 1084 O________OP___ hurdat_epa EP121974 16.5000 -117.800 TS 35 0 16.5000 -117.800 TC 35 16.4179 -117.694 2 37 8 307
1974235N11243 1974 86 EP MM LORRAINE 1974-08-26 21:00:00 TS 16.6856 -118.095 main 1090 1090 P________PP___ EP121974 16.7025 -118.108 TS 35 0 16.7025 -118.108 TC 35 16.6181 -118.046 2 36 7 298
1974235N11243 1974 86 EP MM LORRAINE 1974-08-27 00:00:00 TS 16.8000 -118.400 35 hurdat_epa main 1099 1099 O________OO___ hurdat_epa EP121974 16.8000 -118.400 TS 35 0 16.8000 -118.400 TC 35 16.8000 -118.400 2 35 5 285
1974235N11243 1974 86 EP MM LORRAINE 1974-08-27 03:00:00 TS 16.8290 -118.648 main 1111 1111 P________PP___ EP121974 16.7799 -118.650 TS 32 -1 16.7799 -118.650 TC 32 17.0253 -118.642 2 33 5 271
1974235N11243 1974 86 EP MM LORRAINE 1974-08-27 06:00:00 TS 16.8063 -118.896 30 hurdat_epa main 1130 1130 O________OP___ hurdat_epa EP121974 16.7000 -118.900 TD 30 -1 16.7000 -118.900 TC 30 17.2315 -118.882 2 32 5 266
1974235N11243 1974 86 EP MM LORRAINE 1974-08-27 09:00:00 TS 16.7932 -119.155 main 1150 1150 P________PP___ EP121974 16.6423 -119.155 TD 30 -1 16.6423 -119.155 TC 30 17.3970 -119.157 2 31 6 267
1974235N11243 1974 86 EP MM LORRAINE 1974-08-27 12:00:00 TS 16.7800 -119.500 30 hurdat_epa main 1170 1170 O________OO___ hurdat_epa EP121974 16.6000 -119.500 TD 30 -1 16.6000 -119.500 TC 30 17.5000 -119.500 1 30 8 269
1974235N11243 1974 86 EP MM LORRAINE 1974-08-27 15:00:00 TS 16.7789 -119.961 main 1205 1205 P________PP___ EP121974 16.5922 -119.967 TD 30 -1 16.5922 -119.967 TC 30 17.5256 -119.936 1 30 10 270
1974235N11243 1974 86 EP MM LORRAINE 1974-08-27 18:00:00 TS 16.7774 -120.570 30 hurdat_epa main 1248 1248 O________OP___ hurdat_epa EP121974 16.6000 -120.600 TD 30 -1 16.6000 -120.600 TC 30 17.4870 -120.448 1 30 13 269
1974235N11243 1974 86 EP MM LORRAINE 1974-08-27 21:00:00 TS 16.7638 -121.324 main 1300 1300 P________PP___ EP121974 16.6035 -121.403 TD 30 -1 16.6035 -121.403 TC 30 17.4049 -121.012 1 30 15 269
1974235N11243 1974 86 EP MM LORRAINE 1974-08-28 00:00:00 TS 16.7400 -122.160 30 hurdat_epa main 1377 O________OO___ hurdat_epa EP121974 16.6000 -122.300 TD 30 -1 16.6000 -122.300 TC 30 17.3000 -121.600 1 30 16 268

IBTrACS Databaseについて

本データベースは、米国NOAAが公開する1842年以降の世界の熱帯低気圧のベストトラックデータアーカイブInternational Best Track Archive for Climate Stewardship (IBTrACS)を、ウェブで閲覧しやすい形式に変換したものです。

最終更新日:2021-12-03